createdAt,value
2019-03-06T17:26:13.004Z,0
2019-03-06T17:26:20.766Z,2.3
2019-03-06T17:26:27.983Z,2
2019-03-06T17:26:35.542Z,2.1
2019-03-06T17:26:43.092Z,1.9
2019-03-06T17:26:50.628Z,1.7
2019-03-06T17:26:58.158Z,1.7
2019-03-06T17:27:06.048Z,1.6
2019-03-06T17:27:13.667Z,1.7
2019-03-06T17:27:21.145Z,1.7
2019-03-06T17:27:28.681Z,1.6
2019-03-06T17:27:36.180Z,1.7
2019-03-06T17:27:43.711Z,1.7
2019-03-06T17:27:51.230Z,1.9
2019-03-06T17:27:58.751Z,2.1
2019-03-06T17:28:06.279Z,2.2
2019-03-06T17:28:13.851Z,2.2
2019-03-06T17:28:21.718Z,2.1
2019-03-06T17:28:29.274Z,2.1
2019-03-06T17:28:36.796Z,1.9
2019-03-06T17:28:44.416Z,2
2019-03-06T17:28:52.060Z,1.9
2019-03-06T17:28:59.550Z,1.9
2019-03-06T17:29:07.050Z,2
2019-03-06T17:29:14.665Z,2.1
2019-03-06T17:29:22.202Z,2.1
2019-03-06T17:29:29.722Z,2.4
2019-03-06T17:29:37.190Z,2.2
2019-03-06T17:29:44.719Z,2.1
2019-03-06T17:29:52.249Z,2.2
2019-03-06T17:29:59.785Z,1.9
2019-03-06T17:30:07.301Z,2
2019-03-06T17:30:14.806Z,2.1
2019-03-06T17:30:22.365Z,2.2
2019-03-06T17:30:29.877Z,2.2
2019-03-06T17:30:37.369Z,2.1
2019-03-06T17:30:44.951Z,2
2019-03-06T17:30:53.408Z,1.8
2019-03-06T17:31:00.886Z,1.8
2019-03-06T17:31:08.443Z,1.9
2019-03-06T17:31:16.457Z,1.9
2019-03-06T17:31:23.470Z,2.1
2019-03-06T17:31:31.126Z,2
2019-03-06T17:31:38.626Z,2.1
2019-03-06T17:31:46.202Z,2
2019-03-06T17:31:54.384Z,1.9
2019-03-06T17:32:01.185Z,1.9
2019-03-06T17:32:08.665Z,1.7
2019-03-06T17:32:16.218Z,1.9
2019-03-06T17:32:23.873Z,1.9
2019-03-06T17:32:31.347Z,1.9
2019-03-06T17:32:38.895Z,1.9
2019-03-06T17:32:46.502Z,1.9
2019-03-06T17:32:54.183Z,1.8
2019-03-06T17:33:01.668Z,1.9
2019-03-06T17:33:09.198Z,1.9
2019-03-06T17:33:16.648Z,1.9
2019-03-06T17:33:24.146Z,2.1
2019-03-06T17:33:31.635Z,2.2
2019-03-06T17:33:39.177Z,2
2019-03-06T17:33:46.865Z,2.1
2019-03-06T17:33:54.336Z,2.2
2019-03-06T17:34:01.834Z,2.1
2019-03-06T17:34:09.510Z,2.2
2019-03-06T17:34:17.200Z,2
2019-03-06T17:34:24.684Z,1.8
2019-03-06T17:34:32.173Z,2.2
2019-03-06T17:34:39.871Z,2.2
2019-03-06T17:34:47.457Z,2.3
2019-03-06T17:34:54.961Z,2.1
2019-03-06T17:35:02.525Z,1.9
2019-03-06T17:35:10.073Z,1.9
2019-03-06T17:35:17.566Z,2.1
2019-03-06T17:35:25.077Z,2.3
2019-03-06T17:35:32.589Z,2.2
2019-03-06T17:35:40.241Z,2.1
2019-03-06T17:35:47.713Z,2.1
2019-03-06T17:35:55.215Z,2.2
2019-03-06T17:36:02.767Z,2.1
2019-03-06T17:36:10.342Z,2.2
2019-03-06T17:36:17.840Z,2
2019-03-06T17:36:25.335Z,1.8
2019-03-06T17:36:32.875Z,2
2019-03-06T17:36:40.355Z,2
2019-03-06T17:36:47.857Z,2
2019-03-06T17:36:55.459Z,2
2019-03-06T17:37:03.003Z,1.9
2019-03-06T17:37:10.485Z,1.9
2019-03-06T17:37:18.003Z,1.9
2019-03-06T17:37:25.508Z,1.9
2019-03-06T17:37:33.168Z,1.8
2019-03-06T17:37:40.648Z,1.9
2019-03-06T17:37:48.432Z,1.9
2019-03-06T17:37:55.960Z,1.9
2019-03-06T17:38:22.836Z,0
2019-03-06T17:38:34.644Z,1.7
2019-03-06T17:38:46.672Z,1.7
2019-03-06T17:38:58.487Z,1.7
2019-03-06T17:39:10.171Z,1.8
2019-03-06T17:39:21.927Z,2.1
2019-03-06T17:39:33.675Z,1.9
2019-03-06T17:39:45.386Z,1.8
2019-03-06T17:40:20.572Z,0
2019-03-06T17:40:48.546Z,0
2019-03-06T17:41:00.264Z,1.8
2019-03-06T17:41:11.898Z,1.8
2019-03-06T17:41:23.592Z,2
2019-03-06T17:41:35.394Z,2.1
2019-03-06T17:41:47.083Z,2.2
2019-03-06T17:41:59.760Z,2.2
2019-03-06T17:42:11.502Z,2.3
2019-03-06T17:42:23.398Z,2.4
2019-03-06T17:42:35.115Z,2.2
2019-03-06T17:42:46.828Z,2.2
2019-03-06T17:42:58.488Z,2.1
2019-03-06T17:43:10.220Z,2
2019-03-06T17:43:21.864Z,2
2019-03-06T17:43:33.728Z,2.1
2019-03-06T17:43:45.505Z,2.2
2019-03-06T17:43:57.206Z,2.2
2019-03-06T17:44:11.104Z,2.2
2019-03-06T17:44:20.874Z,2.3
2019-03-06T17:44:32.771Z,2.2
2019-03-06T17:44:44.741Z,2.2
2019-03-06T17:44:56.490Z,2.1
2019-03-06T17:45:09.122Z,2.1
2019-03-06T17:45:19.890Z,2.2
2019-03-06T17:45:32.692Z,2.3
2019-03-06T17:45:44.895Z,2.2
2019-03-06T17:45:56.828Z,2.3
2019-03-06T17:46:08.556Z,2.2
2019-03-06T17:46:20.262Z,2.1
2019-03-06T17:46:32.039Z,2
2019-03-06T17:46:43.737Z,2.1
2019-03-06T17:46:55.412Z,2.1
2019-03-06T17:47:07.042Z,2.2
2019-03-06T17:47:18.786Z,2.2
2019-03-06T17:47:30.824Z,2.4
2019-03-06T17:47:42.827Z,2.3
2019-03-06T17:47:54.445Z,2.3
2019-03-06T17:48:06.246Z,2
2019-03-06T17:48:17.957Z,2
2019-03-06T17:48:29.939Z,2.1
2019-03-06T17:48:41.657Z,1.9
2019-03-06T17:48:53.538Z,1.9
2019-03-06T17:49:05.232Z,1.9
2019-03-06T17:49:16.976Z,2.1
2019-03-06T17:49:28.627Z,2.1
2019-03-06T17:49:41.320Z,2.1
2019-03-06T17:49:53.231Z,2.1
2019-03-06T17:50:04.989Z,2
2019-03-06T17:50:16.839Z,2
2019-03-06T17:50:28.857Z,2.1
2019-03-06T17:50:40.781Z,2
2019-03-06T17:50:52.481Z,2.2
2019-03-06T17:51:04.215Z,2.1
2019-03-06T17:51:15.905Z,1.9
2019-03-06T17:51:27.546Z,2
2019-03-06T17:51:39.256Z,2.1
2019-03-06T17:51:50.973Z,2.2
2019-03-06T17:52:02.675Z,2.2
2019-03-06T17:52:14.360Z,2.3
2019-03-06T17:52:26.067Z,2.3
2019-03-06T17:52:37.698Z,2
2019-03-06T17:52:49.346Z,2
2019-03-06T17:53:01.042Z,1.9
2019-03-06T17:53:12.769Z,1.9
2019-03-06T17:53:24.397Z,2.1
2019-03-06T17:53:36.089Z,2.2
2019-03-06T17:53:47.775Z,2.3
2019-03-06T17:53:59.450Z,2.3
2019-03-06T17:54:11.194Z,2.3
2019-03-06T17:54:22.852Z,2.1
2019-03-06T17:54:34.575Z,2.1
2019-03-06T17:54:46.282Z,2.2
2019-03-06T17:54:57.974Z,2.2
2019-03-06T17:55:09.689Z,2.3
2019-03-06T17:55:21.374Z,2.4
2019-03-06T17:55:33.027Z,2.3
2019-03-06T17:55:44.691Z,2.4
2019-03-06T17:55:56.354Z,2.2
2019-03-06T17:56:08.058Z,2.5
2019-03-06T17:56:19.729Z,2.5
2019-03-06T17:56:31.408Z,2.6
2019-03-06T17:56:43.058Z,2.5
2019-03-06T17:56:54.762Z,2.5
2019-03-06T17:57:06.415Z,2.6
2019-03-06T17:57:18.085Z,2.4
2019-03-06T17:57:29.871Z,2.2
2019-03-06T17:57:42.570Z,2.4
2019-03-06T17:57:54.245Z,2.6
2019-03-06T17:58:05.933Z,2.6
2019-03-06T17:58:18.595Z,2.3
2019-03-06T17:58:30.256Z,2.1
2019-03-06T17:58:41.979Z,2.1
2019-03-06T17:58:53.899Z,2.2
2019-03-06T17:59:05.554Z,2.3
2019-03-06T17:59:17.550Z,2.3
2019-03-06T17:59:29.334Z,2.1
2019-03-06T17:59:43.245Z,2.3
2019-03-06T17:59:52.976Z,2.3
2019-03-06T18:00:04.649Z,2.5
2019-03-06T18:00:17.351Z,2.6
2019-03-06T18:00:28.956Z,2.5
2019-03-06T18:00:40.999Z,2.5
2019-03-06T18:00:52.757Z,2.6
2019-03-06T18:01:04.441Z,2.5
2019-03-06T18:01:16.116Z,2.4
2019-03-06T18:01:28.059Z,2.4
2019-03-06T18:01:39.741Z,2.8
2019-03-06T18:01:51.828Z,2.9
2019-03-06T18:02:03.242Z,2.6
2019-03-06T18:02:14.943Z,2.9
2019-03-06T18:02:26.671Z,2.9
2019-03-06T18:02:38.314Z,2.9
2019-03-06T18:02:50.041Z,3
2019-03-06T18:03:01.716Z,3.4
2019-03-06T18:03:13.394Z,3.5
2019-03-06T18:03:25.257Z,3.6
2019-03-06T18:03:36.950Z,3.2
2019-03-06T18:03:51.416Z,2.9
2019-03-06T18:04:00.634Z,3
2019-03-06T18:04:12.289Z,2.9
2019-03-06T18:04:23.979Z,3.1
2019-03-06T18:04:35.843Z,3
2019-03-06T18:04:48.013Z,3.2
2019-03-06T18:04:59.909Z,3.5
2019-03-06T18:05:11.967Z,3.5
2019-03-06T18:05:23.752Z,3.7
2019-03-06T18:05:35.748Z,3.8
2019-03-06T18:05:47.493Z,3.6
2019-03-06T18:05:59.131Z,3.3
2019-03-06T18:06:10.842Z,3
2019-03-06T18:06:22.597Z,3.1
2019-03-06T18:06:34.318Z,3.1
2019-03-06T18:06:46.000Z,3.5
2019-03-06T18:06:57.673Z,3.3
2019-03-06T18:07:09.406Z,3.3
2019-03-06T18:07:21.285Z,3.3
2019-03-06T18:07:33.105Z,3.5
2019-03-06T18:07:44.775Z,3.5
2019-03-06T18:07:56.521Z,3.5
2019-03-06T18:08:08.208Z,3.7
2019-03-06T18:08:20.065Z,3.6
2019-03-06T18:08:31.818Z,3.6
2019-03-06T18:08:43.569Z,3.6
2019-03-06T18:08:55.214Z,3.6
2019-03-06T18:09:06.970Z,3.6
2019-03-06T18:09:18.610Z,3.7
2019-03-06T18:09:30.302Z,3.7
2019-03-06T18:09:42.027Z,3.9
2019-03-06T18:09:53.693Z,4.9
2019-03-06T18:10:05.383Z,5.5
2019-03-06T18:10:17.044Z,4.8
2019-03-06T18:10:29.096Z,4.1
2019-03-06T18:10:41.485Z,4
2019-03-06T18:10:53.173Z,4.1
2019-03-06T18:11:04.852Z,4.3
2019-03-06T18:11:16.684Z,4.5
2019-03-06T18:11:28.540Z,4.4
2019-03-06T18:11:40.427Z,4.4
2019-03-06T18:11:52.131Z,4.3
2019-03-06T18:12:04.139Z,4
2019-03-06T18:12:16.264Z,3.6
2019-03-06T18:12:27.934Z,3.5
2019-03-06T18:12:39.681Z,3.5
2019-03-06T18:12:53.426Z,3.6
2019-03-06T18:13:03.053Z,3.7
2019-03-06T18:13:15.078Z,3.6
2019-03-06T18:13:26.726Z,3.5
2019-03-06T18:13:38.454Z,3.5
2019-03-06T18:13:50.233Z,3.4
2019-03-06T18:14:01.927Z,3
2019-03-06T18:14:13.594Z,2.7
2019-03-06T18:14:25.314Z,2.9
2019-03-06T18:14:37.005Z,3.2
2019-03-06T18:14:48.863Z,3.4
2019-03-06T18:15:00.748Z,3.2
2019-03-06T18:15:12.403Z,3.4
2019-03-06T18:15:24.170Z,3.4
2019-03-06T18:15:35.872Z,3.2
2019-03-06T18:15:47.531Z,3.1
2019-03-06T18:15:59.279Z,3.3
2019-03-06T18:16:10.994Z,3.2
2019-03-06T18:16:22.676Z,3.3
2019-03-06T18:16:34.373Z,3.2
2019-03-06T18:16:46.380Z,3.5
2019-03-06T18:16:57.933Z,3.3
2019-03-06T18:17:09.659Z,3.3
2019-03-06T18:17:21.360Z,3.3
2019-03-06T18:17:33.181Z,3.2
2019-03-06T18:17:44.877Z,3.2
2019-03-06T18:17:56.562Z,3
2019-03-06T18:18:08.220Z,3.2
2019-03-06T18:18:19.888Z,3.3
2019-03-06T18:18:31.530Z,3.2
2019-03-06T18:18:43.217Z,3.2
2019-03-06T18:18:54.900Z,3.3
2019-03-06T18:19:07.615Z,3.2
2019-03-06T18:19:19.280Z,3.6
2019-03-06T18:19:30.999Z,3.6
2019-03-06T18:19:42.717Z,3.6
2019-03-06T18:19:54.426Z,3.5
2019-03-06T18:20:06.168Z,3.5
2019-03-06T18:20:17.877Z,3.6
2019-03-06T18:20:29.705Z,3.5
2019-03-06T18:20:42.097Z,3.4
2019-03-06T18:20:54.058Z,3.5
2019-03-06T18:21:05.743Z,3.6
2019-03-06T18:21:17.400Z,3.9
2019-03-06T18:21:29.153Z,4
2019-03-06T18:21:41.097Z,4.1
2019-03-06T18:21:52.790Z,3.9
2019-03-06T18:22:04.526Z,3.8
2019-03-06T18:22:16.243Z,3.6
2019-03-06T18:22:27.949Z,3.7
2019-03-06T18:22:40.352Z,3.8
